Time;durP1;ratioP1;P1;durP2;ratioP2;P2;SDS_P1;SDS_P2;PMS_P1;PMS_P2;Temp;Humidity;BMP_temperature;BMP_pressure;BME280_temperature;BME280_humidity;BME280_pressure;Samples;Min_cycle;Max_cycle;Signal;HPM_P1;HPM_P2
2022/07/20 00:02:26;;;;;;;10.20;6.47;;;;;;;22.12;56.53;101067.25;5053986;28;20037;-62
2022/07/20 00:04:52;;;;;;;16.17;8.73;;;;;;;22.10;56.88;101077.16;5035631;28;20470;-63
2022/07/20 00:07:18;;;;;;;11.55;6.90;;;;;;;22.06;56.70;101073.81;5052631;28;20025;-62
2022/07/20 00:12:28;;;;;;;9.30;6.65;;;;;;;21.97;56.86;101074.34;5053942;28;20059;-62
2022/07/20 00:14:54;;;;;;;9.85;6.82;;;;;;;22.05;56.77;101077.44;5035956;28;20456;-62
2022/07/20 00:17:19;;;;;;;12.10;6.57;;;;;;;21.96;56.93;101072.63;5053833;28;20186;-62
2022/07/20 00:19:44;;;;;;;15.65;9.88;;;;;;;21.95;56.98;101075.41;5053859;28;20029;-62
2022/07/20 00:22:10;;;;;;;15.75;9.20;;;;;;;21.95;56.80;101075.41;5052514;28;20036;-62
2022/07/20 00:24:36;;;;;;;14.27;9.55;;;;;;;21.98;56.98;101077.88;5053767;28;20029;-62
2022/07/20 00:27:02;;;;;;;13.35;8.27;;;;;;;21.95;56.64;101080.75;5052424;28;20029;-62
2022/07/20 00:29:27;;;;;;;9.18;6.50;;;;;;;21.91;56.76;101073.84;5052774;28;20043;-62
2022/07/20 00:31:52;;;;;;;8.32;6.07;;;;;;;21.70;57.29;101076.78;5053988;28;20411;-62
2022/07/20 00:34:18;;;;;;;9.77;6.70;;;;;;;21.64;57.43;101077.16;5053454;28;20093;-62
2022/07/20 00:36:43;;;;;;;11.65;7.43;;;;;;;21.54;57.45;101075.94;5053699;28;20354;-62
2022/07/20 00:39:09;;;;;;;8.48;6.35;;;;;;;21.49;57.79;101078.00;5053590;28;20032;-62
2022/07/20 00:41:34;;;;;;;12.05;7.28;;;;;;;21.33;58.26;101081.53;5052342;28;20388;-62
2022/07/20 00:44:01;;;;;;;9.55;6.57;;;;;;;21.34;58.12;101083.28;5053605;28;20375;-62
2022/07/20 00:46:29;;;;;;;8.63;6.20;;;;;;;21.38;58.05;101090.19;5053434;28;20025;-62
2022/07/20 00:48:55;;;;;;;10.27;6.85;;;;;;;21.43;57.69;101083.72;5052507;28;20032;-62
2022/07/20 00:51:20;;;;;;;7.93;5.45;;;;;;;21.46;57.76;101083.53;5053513;28;20033;-62
2022/07/20 00:53:46;;;;;;;9.15;6.25;;;;;;;21.47;57.92;101087.94;5053489;28;20033;-62
2022/07/20 00:56:15;;;;;;;9.48;5.95;;;;;;;21.63;57.37;101081.66;5052213;28;20464;-62
2022/07/20 00:58:40;;;;;;;9.25;6.50;;;;;;;21.70;57.04;101084.81;5052133;28;20116;-62
2022/07/20 01:01:06;;;;;;;9.40;6.63;;;;;;;21.65;57.37;101085.06;5053162;28;20116;-62
2022/07/20 01:03:32;;;;;;;7.65;6.15;;;;;;;21.33;58.19;101088.69;5052334;28;20041;-62
2022/07/20 01:05:58;;;;;;;7.78;6.38;;;;;;;21.24;58.26;101090.03;5051853;28;20033;-63
2022/07/20 01:08:25;;;;;;;10.48;6.70;;;;;;;21.13;58.65;101101.31;5051993;28;20204;-63
2022/07/20 01:10:50;;;;;;;10.85;7.50;;;;;;;21.11;58.65;101097.00;5035134;28;20029;-61
2022/07/20 01:13:16;;;;;;;10.18;7.03;;;;;;;21.02;59.24;101094.81;5051871;28;20059;-64
2022/07/20 01:15:41;;;;;;;9.25;6.93;;;;;;;20.90;59.33;101091.88;5052828;28;20479;-62
2022/07/20 01:18:07;;;;;;;8.35;6.05;;;;;;;20.87;59.55;101092.03;5056977;28;20032;-61
2022/07/20 01:20:33;;;;;;;11.45;7.45;;;;;;;20.90;59.40;101104.34;5057050;28;20074;-64
2022/07/20 01:22:58;;;;;;;10.82;7.63;;;;;;;20.82;59.53;101102.06;5055819;28;20388;-62
2022/07/20 01:25:24;;;;;;;9.05;6.72;;;;;;;20.79;59.78;101099.59;5056875;28;20110;-62
2022/07/20 01:27:49;;;;;;;9.35;7.03;;;;;;;20.83;59.55;101106.50;5056664;28;20053;-62
2022/07/20 01:30:14;;;;;;;10.63;6.88;;;;;;;20.89;59.45;101098.13;5056768;28;20036;-62
2022/07/20 01:32:40;;;;;;;8.48;6.38;;;;;;;20.90;59.29;101104.34;5056245;28;20412;-62
2022/07/20 01:35:06;;;;;;;11.48;6.93;;;;;;;20.76;59.75;101107.75;5056843;28;20067;-62
2022/07/20 01:37:31;;;;;;;9.27;6.35;;;;;;;20.80;59.65;101103.13;5056696;28;20037;-62
2022/07/20 01:39:57;;;;;;;8.68;6.65;;;;;;;20.77;59.54;101098.78;5056641;28;20128;-62
2022/07/20 01:42:23;;;;;;;7.65;6.13;;;;;;;20.77;60.11;101104.13;5055351;28;20033;-62
2022/07/20 01:44:48;;;;;;;8.35;6.50;;;;;;;20.88;59.26;101091.09;5056606;28;20035;-62
2022/07/20 01:47:14;;;;;;;10.40;7.22;;;;;;;20.87;59.35;101091.19;5055487;28;20045;-62
2022/07/20 01:49:39;;;;;;;9.13;6.70;;;;;;;20.95;59.29;101106.78;5056532;28;20029;-62
2022/07/20 01:52:05;;;;;;;8.82;6.43;;;;;;;20.92;59.02;101105.13;5056405;28;20037;-62
2022/07/20 01:54:30;;;;;;;11.93;7.35;;;;;;;20.89;59.26;101107.97;5056294;28;20461;-62
2022/07/20 01:56:56;;;;;;;10.65;6.80;;;;;;;20.82;59.13;101110.09;5055382;28;20098;-62
2022/07/20 01:59:21;;;;;;;9.23;7.07;;;;;;;20.72;59.48;101114.19;5054689;28;20037;-62
2022/07/20 02:01:46;;;;;;;9.18;6.20;;;;;;;20.67;59.50;101117.13;5056430;28;20029;-62
2022/07/20 02:04:12;;;;;;;10.43;6.63;;;;;;;20.70;59.24;101120.56;5055174;28;20039;-62
2022/07/20 02:06:37;;;;;;;12.70;7.68;;;;;;;20.66;59.57;101119.84;5056129;28;20094;-62
2022/07/20 02:09:03;;;;;;;10.00;7.03;;;;;;;20.69;59.55;101119.69;5038269;28;20068;-61
2022/07/20 02:11:28;;;;;;;9.43;7.15;;;;;;;20.63;59.34;101115.56;5056094;28;20040;-62
2022/07/20 02:13:54;;;;;;;9.40;6.10;;;;;;;20.67;59.45;101116.25;5056012;28;20040;-62
2022/07/20 02:16:20;;;;;;;7.70;5.97;;;;;;;20.57;59.34;101105.19;5056022;28;20044;-62
2022/07/20 02:18:52;;;;;;;10.50;7.55;;;;;;;20.64;59.19;101103.06;5054574;28;20032;-62
2022/07/20 02:21:20;;;;;;;8.85;6.45;;;;;;;20.68;59.19;101101.97;5054416;28;20035;-62
2022/07/20 02:23:45;;;;;;;8.50;6.43;;;;;;;20.77;59.09;101100.59;5055684;28;20450;-62
2022/07/20 02:26:11;;;;;;;9.02;6.20;;;;;;;20.80;58.89;101095.09;5054185;28;20124;-62
2022/07/20 02:28:37;;;;;;;8.55;5.72;;;;;;;20.97;58.57;101107.56;5054428;28;20044;-62
2022/07/20 02:31:03;;;;;;;7.30;5.55;;;;;;;21.11;58.03;101113.91;5054467;28;20048;-62
2022/07/20 02:33:28;;;;;;;9.23;7.07;;;;;;;21.21;57.78;101106.22;5055114;28;20408;-62
2022/07/20 02:35:54;;;;;;;10.95;7.13;;;;;;;21.21;57.60;101114.25;5054333;28;20036;-62
2022/07/20 02:38:20;;;;;;;11.35;7.68;;;;;;;21.10;57.99;101111.28;5055484;28;20033;-62
2022/07/20 02:40:45;;;;;;;9.25;6.18;;;;;;;21.07;57.84;101115.00;5037687;28;20572;-62
2022/07/20 02:43:11;;;;;;;9.25;5.72;;;;;;;21.02;58.21;101109.03;5054341;28;20121;-62
2022/07/20 02:45:40;;;;;;;10.10;6.57;;;;;;;20.88;58.31;101103.56;5055442;28;20464;-62
2022/07/20 02:48:05;;;;;;;9.65;6.93;;;;;;;20.99;58.06;101116.38;5055485;28;20037;-62
2022/07/20 02:50:37;;;;;;;9.35;6.40;;;;;;;21.06;57.76;101115.94;5055339;28;20057;-62
2022/07/20 02:53:04;;;;;;;8.73;5.43;;;;;;;21.09;57.62;101123.78;5055802;28;20083;-62
2022/07/20 02:55:29;;;;;;;9.90;5.70;;;;;;;21.05;57.85;101124.03;5054002;28;20091;-62
2022/07/20 02:57:55;;;;;;;7.43;5.72;;;;;;;21.02;57.65;101126.88;5055220;28;20033;-62
2022/07/20 03:00:20;;;;;;;7.38;5.85;;;;;;;20.92;57.91;101123.84;5055093;28;20033;-62
2022/07/20 03:02:47;;;;;;;8.95;5.78;;;;;;;20.85;57.75;101139.31;5055005;28;20047;-62
2022/07/20 03:05:13;;;;;;;6.57;4.88;;;;;;;20.64;58.29;101133.28;5053853;28;20037;-62
2022/07/20 03:07:39;;;;;;;9.85;5.32;;;;;;;20.52;58.53;101133.06;5054177;28;20060;-62
2022/07/20 03:10:06;;;;;;;8.80;5.47;;;;;;;20.45;59.07;101147.63;5055186;28;20245;-62
2022/07/20 03:12:32;;;;;;;9.23;5.45;;;;;;;20.48;58.92;101142.13;5053655;28;20025;-62
2022/07/20 03:14:57;;;;;;;8.00;5.18;;;;;;;20.56;58.77;101150.66;5053552;28;20112;-62
2022/07/20 03:17:23;;;;;;;8.80;5.40;;;;;;;20.69;58.28;101151.75;5054781;28;20063;-62
2022/07/20 03:19:49;;;;;;;8.15;5.50;;;;;;;20.76;58.11;101153.16;5053546;28;20056;-63
2022/07/20 03:22:14;;;;;;;6.40;4.68;;;;;;;20.88;57.88;101147.16;5053570;28;20083;-62
2022/07/20 03:24:40;;;;;;;7.68;5.22;;;;;;;21.04;57.60;101144.56;5054979;28;20079;-62
2022/07/20 03:27:05;;;;;;;11.07;5.72;;;;;;;21.18;57.27;101138.47;5054430;28;20029;-62
2022/07/20 03:29:31;;;;;;;8.60;5.97;;;;;;;21.36;56.79;101147.34;5054734;28;20040;-62
2022/07/20 03:31:56;;;;;;;7.35;5.55;;;;;;;21.37;56.75;101144.56;5054319;28;20033;-62
2022/07/20 03:34:22;;;;;;;7.40;5.55;;;;;;;21.37;56.80;101149.91;5054030;28;20056;-63
2022/07/20 03:36:48;;;;;;;8.02;4.82;;;;;;;21.53;56.36;101147.25;5054121;28;20037;-62
2022/07/20 03:39:15;;;;;;;7.57;5.53;;;;;;;21.64;55.89;101152.03;5036399;28;20060;-62
2022/07/20 03:41:43;;;;;;;10.23;5.30;;;;;;;21.67;55.84;101145.66;5052903;28;20029;-62
2022/07/20 03:44:08;;;;;;;8.00;5.68;;;;;;;21.67;55.88;101143.84;5036994;28;20044;-62
2022/07/20 03:46:34;;;;;;;6.45;5.10;;;;;;;21.72;55.47;101151.59;5053938;28;20021;-62
2022/07/20 03:48:59;;;;;;;8.23;5.30;;;;;;;21.60;56.08;101151.34;5054087;28;20035;-62
2022/07/20 03:51:26;;;;;;;9.05;5.47;;;;;;;21.56;56.14;101159.63;5052883;28;20116;-62
2022/07/20 03:53:52;;;;;;;12.80;6.97;;;;;;;21.58;56.22;101155.03;5053425;28;20059;-62
2022/07/20 03:56:17;;;;;;;9.63;6.00;;;;;;;21.56;56.27;101162.28;5054071;28;20118;-62
2022/07/20 03:58:43;;;;;;;8.48;5.88;;;;;;;21.66;55.89;101155.47;5052749;28;20029;-62
2022/07/20 04:01:09;;;;;;;9.73;5.55;;;;;;;21.67;55.93;101167.91;5052812;28;20033;-62
2022/07/20 04:03:34;;;;;;;6.45;5.07;;;;;;;21.74;55.92;101163.06;5052702;28;20098;-63
2022/07/20 04:06:01;;;;;;;8.65;5.97;;;;;;;21.78;55.71;101161.94;5052660;28;20472;-62
2022/07/20 04:08:26;;;;;;;9.10;6.32;;;;;;;21.93;55.53;101169.09;5052818;28;20056;-63
2022/07/20 04:10:52;;;;;;;9.15;5.40;;;;;;;22.02;55.25;101173.06;5053853;28;20472;-62
2022/07/20 04:13:17;;;;;;;10.00;5.60;;;;;;;22.09;55.28;101169.09;5052423;28;20062;-62
2022/07/20 04:15:43;;;;;;;6.60;4.95;;;;;;;22.27;54.61;101177.94;5052261;28;20460;-62
2022/07/20 04:18:08;;;;;;;10.77;5.43;;;;;;;22.42;54.46;101181.50;5053701;28;20079;-62
2022/07/20 04:20:33;;;;;;;8.68;5.70;;;;;;;22.51;54.15;101181.00;5054398;28;20029;-63
2022/07/20 04:22:59;;;;;;;7.85;5.18;;;;;;;22.47;54.20;101190.16;5053456;28;20504;-62
2022/07/20 04:25:24;;;;;;;7.57;5.55;;;;;;;22.40;54.43;101196.81;5053369;28;20480;-62
2022/07/20 04:27:50;;;;;;;7.70;5.35;;;;;;;22.36;54.50;101198.81;5053557;28;20036;-62
2022/07/20 04:30:16;;;;;;;11.02;6.47;;;;;;;22.33;55.01;101199.84;5035723;28;20064;-62
2022/07/20 04:32:42;;;;;;;8.38;5.78;;;;;;;22.38;54.91;101205.81;5051883;28;20049;-64
2022/07/20 04:35:09;;;;;;;12.60;7.35;;;;;;;22.32;55.09;101200.78;5052106;28;20025;-62
2022/07/20 04:37:35;;;;;;;10.52;6.35;;;;;;;22.44;54.76;101191.19;5035880;28;20025;-62
2022/07/20 04:40:01;;;;;;;7.30;5.40;;;;;;;22.84;53.87;101189.69;5052314;28;20120;-62
2022/07/20 04:42:27;;;;;;;7.57;4.97;;;;;;;22.83;54.10;101197.81;5052362;28;20057;-62
2022/07/20 04:44:52;;;;;;;11.25;5.93;;;;;;;23.04;53.35;101191.19;5052105;28;20476;-63
2022/07/20 04:47:18;;;;;;;9.05;5.70;;;;;;;23.19;53.16;101194.75;5053064;28;20033;-62
2022/07/20 04:49:43;;;;;;;9.68;6.28;;;;;;;23.28;53.06;101190.63;5053037;28;20048;-62
2022/07/20 04:52:08;;;;;;;10.88;6.32;;;;;;;23.36;52.63;101196.38;5057225;28;20064;-62
2022/07/20 04:54:34;;;;;;;10.93;6.85;;;;;;;23.40;52.61;101197.06;5055862;28;20033;-62
2022/07/20 04:57:01;;;;;;;12.45;6.63;;;;;;;23.53;52.38;101198.00;5057461;28;20029;-62
2022/07/20 04:59:27;;;;;;;8.30;5.00;;;;;;;23.68;52.04;101196.22;5056183;28;20107;-62
2022/07/20 05:01:53;;;;;;;6.38;4.35;;;;;;;23.88;51.59;101194.94;5039415;28;20033;-63
2022/07/20 05:04:18;;;;;;;8.75;5.35;;;;;;;24.01;51.18;101187.81;5056109;28;20029;-63
2022/07/20 05:06:44;;;;;;;7.88;5.78;;;;;;;24.16;51.07;101191.31;5055827;28;20055;-63
2022/07/20 05:09:10;;;;;;;8.35;6.43;;;;;;;24.28;50.70;101190.50;5055832;28;20037;-63
2022/07/20 05:11:36;;;;;;;8.88;5.65;;;;;;;24.40;50.49;101191.56;5039573;28;20037;-63
2022/07/20 05:14:02;;;;;;;11.05;6.32;;;;;;;24.48;50.51;101192.75;5039062;28;20069;-63
2022/07/20 05:16:27;;;;;;;9.25;5.93;;;;;;;24.58;50.29;101203.75;5057023;28;20064;-63
2022/07/20 05:18:53;;;;;;;7.57;5.38;;;;;;;24.69;49.83;101205.69;5057011;28;20028;-63
2022/07/20 05:21:18;;;;;;;9.63;5.28;;;;;;;24.83;49.58;101202.94;5056931;28;20028;-63
2022/07/20 05:23:44;;;;;;;10.40;6.30;;;;;;;24.94;49.68;101210.28;5057002;28;20358;-63
2022/07/20 05:26:09;;;;;;;9.88;5.78;;;;;;;24.99;49.48;101213.50;5039172;28;20396;-63
2022/07/20 05:28:35;;;;;;;8.88;5.60;;;;;;;24.97;49.36;101210.91;5055545;28;20040;-63
2022/07/20 05:31:00;;;;;;;7.70;4.70;;;;;;;25.00;48.99;101210.69;5055470;28;20167;-63
2022/07/20 05:33:26;;;;;;;8.65;5.15;;;;;;;25.08;48.79;101199.41;5055079;28;20515;-63
2022/07/20 05:35:51;;;;;;;7.32;4.47;;;;;;;25.22;48.39;101195.81;5056686;28;20044;-63
2022/07/20 05:38:21;;;;;;;9.65;5.30;;;;;;;25.35;48.14;101203.88;5057105;28;20120;-63
2022/07/20 05:40:48;;;;;;;8.73;4.80;;;;;;;25.41;47.99;101198.03;5055194;28;20029;-62
2022/07/20 05:43:13;;;;;;;7.90;4.57;;;;;;;25.47;47.71;101201.16;5055197;28;20032;-63
2022/07/20 05:45:39;;;;;;;7.40;4.30;;;;;;;25.53;47.57;101202.53;5038646;28;20033;-63
2022/07/20 05:48:06;;;;;;;9.13;4.20;;;;;;;25.63;47.32;101203.63;5056127;28;20401;-63
2022/07/20 05:50:32;;;;;;;6.72;4.25;;;;;;;25.74;46.86;101206.41;5055227;28;20087;-63
2022/07/20 05:52:57;;;;;;;6.63;3.97;;;;;;;25.87;46.50;101202.84;5038402;28;20388;-63
2022/07/20 05:55:26;;;;;;;6.93;4.18;;;;;;;26.02;45.73;101202.59;5056330;28;20040;-63
2022/07/20 05:57:51;;;;;;;6.07;3.97;;;;;;;26.14;45.30;101198.13;5054982;28;20047;-63
2022/07/20 06:00:17;;;;;;;7.53;3.97;;;;;;;26.23;44.91;101201.97;5055075;28;20068;-63
2022/07/20 06:02:42;;;;;;;5.03;3.65;;;;;;;26.32;44.72;101205.81;5054488;28;20465;-63
2022/07/20 06:05:09;;;;;;;7.05;4.22;;;;;;;26.45;44.55;101206.63;5056366;28;20047;-63
2022/07/20 06:07:34;;;;;;;5.72;3.97;;;;;;;26.58;44.32;101214.66;5054874;28;20033;-63
2022/07/20 06:10:00;;;;;;;5.38;3.42;;;;;;;26.68;43.84;101219.22;5055982;28;20055;-63
2022/07/20 06:12:25;;;;;;;7.75;4.55;;;;;;;26.73;43.25;101211.66;5054761;28;20021;-63
2022/07/20 06:14:51;;;;;;;7.10;3.80;;;;;;;26.81;42.75;101207.50;5054669;28;20441;-63
2022/07/20 06:17:16;;;;;;;6.15;3.72;;;;;;;26.91;42.66;101212.06;5056177;28;20041;-63
2022/07/20 06:19:41;;;;;;;5.13;3.28;;;;;;;26.99;42.59;101212.34;5055365;28;20053;-63
2022/07/20 06:22:07;;;;;;;5.82;3.58;;;;;;;27.08;42.59;101213.44;5038153;28;20060;-63
2022/07/20 06:24:32;;;;;;;6.32;3.60;;;;;;;27.17;42.40;101215.50;5055819;28;20480;-63
2022/07/20 06:26:58;;;;;;;4.15;3.20;;;;;;;27.26;42.33;101222.00;5055657;28;20487;-63
2022/07/20 06:29:25;;;;;;;6.07;3.55;;;;;;;27.36;41.83;101227.50;5055683;28;20051;-63
2022/07/20 06:31:51;;;;;;;6.63;3.92;;;;;;;27.37;41.21;101223.81;5055395;28;20033;-63
2022/07/20 06:34:16;;;;;;;6.03;3.47;;;;;;;27.45;41.52;101219.56;5054047;28;20056;-63
2022/07/20 06:36:44;;;;;;;6.95;3.95;;;;;;;27.54;41.28;101212.56;5055545;28;20033;-63
2022/07/20 06:39:10;;;;;;;5.53;3.47;;;;;;;27.61;41.30;101216.50;5055348;28;20503;-63
2022/07/20 06:41:35;;;;;;;6.80;3.88;;;;;;;27.59;41.50;101220.28;5055056;28;20033;-63
2022/07/20 06:44:01;;;;;;;10.48;3.97;;;;;;;27.68;41.22;101214.16;5054291;28;20496;-63
2022/07/20 06:46:27;;;;;;;6.32;3.90;;;;;;;27.72;41.30;101216.47;5055141;28;20426;-63
2022/07/20 06:48:53;;;;;;;5.35;3.15;;;;;;;27.87;41.20;101218.97;5055225;28;20028;-63
2022/07/20 06:51:18;;;;;;;5.70;3.38;;;;;;;27.93;41.16;101211.22;5055336;28;20469;-63
2022/07/20 06:53:44;;;;;;;4.47;3.05;;;;;;;28.00;41.06;101214.25;5054188;28;20029;-64
2022/07/20 06:56:09;;;;;;;4.95;3.70;;;;;;;28.10;40.75;101206.28;5055153;28;20040;-63
2022/07/20 06:58:34;;;;;;;5.85;3.58;;;;;;;28.19;40.54;101203.66;5055188;28;20036;-63
2022/07/20 07:01:01;;;;;;;4.18;3.05;;;;;;;28.26;40.28;101209.41;5054817;28;20040;-64
2022/07/20 07:03:27;;;;;;;5.95;3.13;;;;;;;28.33;39.80;101210.63;5053815;28;20025;-63
2022/07/20 07:05:52;;;;;;;4.75;3.15;;;;;;;28.36;39.32;101210.38;5055175;28;20029;-63
2022/07/20 07:08:18;;;;;;;4.22;3.33;;;;;;;28.40;39.17;101216.41;5054938;28;20025;-63
2022/07/20 07:10:43;;;;;;;6.60;3.00;;;;;;;28.46;38.70;101215.91;5053639;28;20118;-64
2022/07/20 07:13:08;;;;;;;3.13;2.58;;;;;;;28.54;38.51;101218.81;5052675;28;20033;-64
2022/07/20 07:15:34;;;;;;;5.80;2.97;;;;;;;28.62;38.32;101219.03;5053726;28;20450;-64
2022/07/20 07:17:59;;;;;;;3.45;2.40;;;;;;;28.67;38.07;101211.38;5054581;28;20044;-63
2022/07/20 07:20:28;;;;;;;3.83;2.17;;;;;;;28.69;37.24;101213.97;5053372;28;20211;-63
2022/07/20 07:22:54;;;;;;;3.65;2.25;;;;;;;28.76;37.28;101207.03;5053330;28;20396;-63
2022/07/20 07:25:19;;;;;;;4.38;2.22;;;;;;;28.84;36.88;101209.91;5054591;28;20033;-64
2022/07/20 07:27:44;;;;;;;4.68;2.30;;;;;;;28.85;36.70;101216.22;5054561;28;20036;-63
2022/07/20 07:30:11;;;;;;;4.03;2.50;;;;;;;28.98;36.93;101219.59;5054266;28;20033;-63
2022/07/20 07:32:39;;;;;;;3.17;2.35;;;;;;;29.05;36.66;101218.09;5052872;28;20044;-64
2022/07/20 07:35:05;;;;;;;3.97;2.42;;;;;;;29.12;36.41;101219.25;5054533;28;20043;-63
2022/07/20 07:37:31;;;;;;;3.50;2.50;;;;;;;29.18;36.35;101217.88;5054392;28;20029;-63
2022/07/20 07:39:56;;;;;;;3.72;2.85;;;;;;;29.23;36.78;101214.78;5054253;28;20431;-64
2022/07/20 07:42:22;;;;;;;3.17;2.45;;;;;;;29.29;36.01;101212.41;5054257;28;20068;-63
2022/07/20 07:44:48;;;;;;;4.55;2.42;;;;;;;29.35;36.07;101211.00;5053082;28;20044;-63
2022/07/20 07:47:14;;;;;;;4.50;2.30;;;;;;;29.39;35.74;101215.13;5036424;28;20115;-64
2022/07/20 07:49:39;;;;;;;6.63;2.67;;;;;;;29.44;35.39;101207.47;5054352;28;20444;-63
2022/07/20 07:52:04;;;;;;;2.55;2.15;;;;;;;29.46;35.01;101205.50;5054184;28;20033;-64
2022/07/20 07:54:30;;;;;;;4.22;2.45;;;;;;;29.45;35.49;101207.34;5052878;28;20037;-63
2022/07/20 07:56:55;;;;;;;3.63;2.58;;;;;;;29.55;35.58;101207.38;5052852;28;20037;-63
2022/07/20 07:59:21;;;;;;;4.55;2.92;;;;;;;29.69;35.43;101204.34;5053428;28;20063;-64
2022/07/20 08:01:46;;;;;;;3.80;2.60;;;;;;;29.69;35.46;101200.78;5054247;28;20033;-63
2022/07/20 08:04:12;;;;;;;3.88;2.90;;;;;;;29.78;35.51;101196.38;5054048;28;20397;-63
2022/07/20 08:06:37;;;;;;;3.78;2.10;;;;;;;29.78;35.67;101209.91;5053939;28;20032;-63
2022/07/20 08:09:03;;;;;;;4.35;2.50;;;;;;;29.79;35.85;101212.47;5054202;28;20036;-63
2022/07/20 08:11:29;;;;;;;4.05;2.85;;;;;;;29.84;36.39;101199.41;5052576;28;20047;-63
2022/07/20 08:13:59;;;;;;;3.05;2.42;;;;;;;29.90;36.13;101197.97;5053647;28;20036;-63
2022/07/20 08:16:24;;;;;;;3.00;2.50;;;;;;;29.97;36.43;101203.72;5052860;28;20036;-63
2022/07/20 08:18:50;;;;;;;3.05;2.33;;;;;;;29.95;36.22;101207.38;5052749;28;20385;-63
2022/07/20 08:21:15;;;;;;;3.65;2.33;;;;;;;29.96;36.39;101205.53;5052345;28;20076;-64
2022/07/20 08:23:41;;;;;;;5.25;2.70;;;;;;;30.03;35.79;101198.56;5053619;28;20036;-64
2022/07/20 08:26:06;;;;;;;4.47;2.78;;;;;;;30.09;36.11;101198.03;5052008;28;20380;-64
2022/07/20 08:28:32;;;;;;;4.40;2.20;;;;;;;30.10;36.12;101198.88;5053391;28;20098;-63
2022/07/20 08:30:57;;;;;;;2.50;1.95;;;;;;;30.17;36.18;101198.22;5053313;28;20056;-64
2022/07/20 08:33:23;;;;;;;4.28;2.70;;;;;;;30.23;35.58;101199.50;5051439;28;20095;-63
2022/07/20 08:35:49;;;;;;;5.80;2.75;;;;;;;30.28;35.58;101201.78;5053624;28;20052;-64
2022/07/20 08:38:15;;;;;;;3.15;2.10;;;;;;;30.29;35.69;101198.09;5052187;28;20073;-64
2022/07/20 08:40:41;;;;;;;3.10;2.33;;;;;;;30.35;35.42;101200.22;5053435;28;20121;-64
2022/07/20 08:43:06;;;;;;;2.78;1.92;;;;;;;30.39;35.79;101210.63;5051926;28;20380;-63
2022/07/20 08:45:34;;;;;;;4.50;2.45;;;;;;;30.45;35.31;101205.66;5035254;28;20036;-64
2022/07/20 08:48:02;;;;;;;6.15;2.90;;;;;;;30.47;35.49;101207.22;5053365;28;20036;-64
2022/07/20 08:50:30;;;;;;;6.32;2.83;;;;;;;30.58;35.50;101222.50;5051954;28;20033;-63
2022/07/20 08:52:56;;;;;;;3.92;2.50;;;;;;;30.72;35.30;101218.47;5053338;28;20029;-64
2022/07/20 08:55:23;;;;;;;3.42;2.58;;;;;;;30.79;34.99;101211.50;5051888;28;20037;-64
2022/07/20 08:57:49;;;;;;;4.03;2.58;;;;;;;30.80;34.65;101215.94;5051971;28;20037;-64
2022/07/20 09:00:15;;;;;;;3.90;2.53;;;;;;;30.85;34.89;101211.81;5052060;28;20036;-64
2022/07/20 09:02:56;;;;;;;3.38;2.58;;;;;;;30.83;34.42;101212.94;5035441;28;20151;-64
2022/07/20 09:05:24;;;;;;;3.08;2.30;;;;;;;30.89;34.94;101190.66;5053360;28;20025;-64
2022/07/20 09:07:53;;;;;;;6.28;2.67;;;;;;;30.94;34.58;101196.50;5035692;28;20029;-64
2022/07/20 09:10:36;;;;;;;6.97;2.85;;;;;;;31.00;34.39;101192.34;5052820;28;20025;-64
2022/07/20 09:13:06;;;;;;;5.00;2.60;;;;;;;31.04;35.10;101189.22;5051865;28;20036;-64
2022/07/20 09:15:34;;;;;;;3.13;2.35;;;;;;;31.09;34.89;101192.34;5051731;28;20037;-64
2022/07/20 09:18:02;;;;;;;4.05;2.42;;;;;;;31.02;34.61;101193.91;5051840;28;20029;-64
2022/07/20 09:20:29;;;;;;;4.05;2.63;;;;;;;30.98;34.76;101189.78;5053015;28;20507;-64
2022/07/20 09:23:00;;;;;;;4.30;2.65;;;;;;;31.15;35.02;101193.59;5052205;28;20033;-64
2022/07/20 09:25:26;;;;;;;3.50;2.92;;;;;;;31.25;34.71;101204.44;5052040;28;20029;-64
2022/07/20 09:27:51;;;;;;;3.92;2.50;;;;;;;31.23;34.62;101201.00;5051937;28;20071;-64
2022/07/20 09:30:18;;;;;;;3.78;2.70;;;;;;;31.33;34.45;101205.44;5018670;28;20026;-64
2022/07/20 09:32:54;;;;;;;6.30;3.38;;;;;;;31.43;33.91;101210.81;5051400;28;20142;-64
2022/07/20 09:35:22;;;;;;;4.75;2.70;;;;;;;31.46;34.79;101210.53;5052006;28;20033;-64
2022/07/20 09:37:48;;;;;;;5.80;3.03;;;;;;;31.49;34.50;101212.09;5054330;28;20120;-64
2022/07/20 09:40:16;;;;;;;4.10;2.80;;;;;;;31.46;34.24;101204.25;5055464;28;20064;-64
2022/07/20 09:42:46;;;;;;;4.47;3.10;;;;;;;31.52;34.19;101199.09;5055420;28;20464;-64
2022/07/20 09:45:32;;;;;;;4.50;3.53;;;;;;;31.47;34.23;101201.38;5055370;28;20480;-64
2022/07/20 09:48:12;;;;;;;4.53;2.80;;;;;;;31.46;33.87;101205.09;5056547;28;20479;-64
2022/07/20 09:50:41;;;;;;;5.38;3.20;;;;;;;31.49;34.46;101202.09;5055226;28;20021;-64
2022/07/20 09:53:11;;;;;;;6.13;3.15;;;;;;;31.62;34.20;101185.44;5056691;28;20068;-64
2022/07/20 09:55:41;;;;;;;3.38;2.67;;;;;;;31.66;34.75;101189.56;5055083;28;20468;-64
2022/07/20 09:58:11;;;;;;;3.15;2.67;;;;;;;31.79;34.13;101181.91;5055349;28;20037;-64
2022/07/20 10:00:37;;;;;;;4.38;3.17;;;;;;;31.81;34.10;101181.78;5055047;28;20037;-64
2022/07/20 10:03:04;;;;;;;5.90;2.78;;;;;;;31.91;34.21;101179.88;5055016;28;20365;-64
2022/07/20 10:05:39;;;;;;;7.68;3.03;;;;;;;31.82;33.63;101176.19;5054963;28;20036;-64
2022/07/20 10:08:06;;;;;;;5.28;3.20;;;;;;;31.97;33.93;101178.44;5056216;28;20469;-64
2022/07/20 10:10:33;;;;;;;3.47;2.80;;;;;;;32.03;34.02;101180.50;5038349;28;20032;-64
2022/07/20 10:12:59;;;;;;;4.90;3.03;;;;;;;31.96;34.17;101182.13;5054881;28;20040;-64
2022/07/20 10:15:35;;;;;;;5.80;3.00;;;;;;;32.02;33.83;101168.78;5054654;28;20075;-64
2022/07/20 10:18:01;;;;;;;5.30;3.10;;;;;;;32.01;34.25;101166.25;5054578;28;20032;-64
2022/07/20 10:20:32;;;;;;;3.97;2.80;;;;;;;32.20;34.06;101181.53;5038077;28;20033;-64
2022/07/20 10:23:16;;;;;;;4.53;2.90;;;;;;;32.19;33.79;101179.84;5055899;28;20029;-65
2022/07/20 10:25:49;;;;;;;3.58;2.92;;;;;;;32.14;33.58;101173.00;5056067;28;20020;-64
2022/07/20 10:28:24;;;;;;;4.40;2.70;;;;;;;32.21;33.74;101175.09;5038118;28;20090;-64
2022/07/20 10:30:54;;;;;;;4.30;2.90;;;;;;;32.29;33.46;101177.91;5054483;28;20129;-64
2022/07/20 10:33:21;;;;;;;6.47;3.33;;;;;;;32.34;33.58;101183.72;5053949;28;20053;-64
2022/07/20 10:35:48;;;;;;;3.92;2.97;;;;;;;32.38;33.58;101183.25;5054372;28;20033;-64
2022/07/20 10:38:23;;;;;;;4.45;2.85;;;;;;;32.34;33.84;101183.72;5054233;28;20426;-65
2022/07/20 10:44:38;;;;;;;5.95;3.13;;;;;;;32.34;32.29;101181.00;5055775;28;20108;-64
2022/07/20 10:47:24;;;;;;;3.70;2.63;;;;;;;32.43;33.19;101181.97;5032296;28;20033;-64
2022/07/20 10:50:01;;;;;;;3.97;2.85;;;;;;;32.51;33.42;101174.72;5054955;28;20047;-64
2022/07/20 10:52:33;;;;;;;3.30;2.53;;;;;;;32.61;33.31;101174.66;5037633;28;20556;-64
2022/07/20 10:54:58;;;;;;;4.35;2.70;;;;;;;32.71;33.25;101178.13;5037210;28;20029;-64
2022/07/20 10:57:25;;;;;;;5.60;2.80;;;;;;;32.71;33.48;101177.28;5055297;28;20048;-64
2022/07/20 11:00:11;;;;;;;4.03;3.03;;;;;;;32.72;32.52;101176.28;5037328;28;20065;-64
2022/07/20 11:02:37;;;;;;;3.80;2.83;;;;;;;32.84;33.43;101177.72;5053857;28;20554;-64
2022/07/20 11:05:04;;;;;;;5.85;3.22;;;;;;;32.98;33.01;101177.16;5055141;28;20041;-64
2022/07/20 11:07:33;;;;;;;5.30;2.88;;;;;;;32.98;33.47;101176.31;5053724;28;20090;-64
2022/07/20 11:10:00;;;;;;;3.67;2.80;;;;;;;32.91;33.05;101176.06;5054853;28;20033;-64
2022/07/20 11:12:28;;;;;;;5.38;3.45;;;;;;;32.68;32.99;101174.88;5053862;28;20069;-64
2022/07/20 11:14:57;;;;;;;3.47;2.72;;;;;;;32.81;33.32;101169.88;5053557;28;20029;-64
2022/07/20 11:17:22;;;;;;;3.95;2.80;;;;;;;33.03;32.92;101172.09;5053552;28;20457;-64
2022/07/20 11:19:48;;;;;;;4.35;2.80;;;;;;;33.02;32.82;101161.38;5053574;28;20147;-64
2022/07/20 11:22:14;;;;;;;3.88;2.83;;;;;;;33.12;32.57;101166.72;5054763;28;20037;-64
2022/07/20 11:24:40;;;;;;;5.63;3.22;;;;;;;33.20;32.61;101164.91;5053261;28;20024;-64
2022/07/20 11:27:15;;;;;;;7.88;3.83;;;;;;;32.80;31.57;101168.19;5053179;28;20357;-64
2022/07/20 11:29:49;;;;;;;5.07;3.60;;;;;;;32.81;31.91;101172.59;5053016;28;20044;-64